Airfield :
LOGIN :

Register | Disclaimer

   EN    FR    IT 

 










Legend :    VFR   Marginal VFR   IFR   Intensive IFR   Very Intensive IFR
Visi :
Ceiling :
>= 8 km
>= 3000ft
5 to 8 km
1000 to 3000 ft
1500m to 5 km
500 to 1000 ft
800 to 1500m
200 to 500 ft
< 800m
< 200 ft
Symbols :   Thunderstorms  Fog  Heavy snow  Heavy precipitations  Wind > 20 kt
SIGMETs :     Misc.  Thunderstorms  Icing  Turbulence  Mountain Waves  Volcanic Ashes






- Airport Elevation : 466 ft


LHPA - Pápa

CURRENT METAR :
  • 021545Z 16008KT 140V200 CAVOK 11/M09 Q1012 NOSIG RMK BLU

EXPIRED METARs :
  • 021515Z 16008KT 120V200 CAVOK 11/M09 Q1012 NOSIG RMK BLU
  • 021445Z 16004KT CAVOK 12/M11 Q1012 NOSIG RMK BLU
  • 021415Z 20006KT 160V250 CAVOK 12/M11 Q1013 NOSIG RMK BLU
  • 021345Z 18008KT 120V210 CAVOK 11/M11 Q1013 NOSIG RMK BLU
  • 021315Z 18008KT 110V260 CAVOK 11/M11 Q1014 NOSIG RMK BLU

TAF TAF LHPA
Valid from the 02 at 12:00 until the 03 at 12:00 UTC


021115Z 0212/0312 20010KT CAVOK
BECMG 0215/0218 16006KT
TEMPO 0302/0306 VRB03KT
BECMG 0308/0311 33010KT



MET'MAP, your aeronautical weather chart ! - Copyright ORBIFLY December 2007 - Disclaimer

ORBIFLY MET'MAP TEAM :

Programming & Development : Alexandra Zaïnal
Concept & original design : Baudouin d'Aumeries
Assistance for programming : Marc-Olivier Méhu
Technical & hardware support : Manuel Goepfert

Contact : metmap@orbifly.com




SOURCES & CREDITS :

   NOAA